createdAt,value
2018-07-13T00:01:59.601Z,100978.75
2018-07-13T00:04:27.689Z,100973.80
2018-07-13T00:06:56.685Z,100970.45
2018-07-13T00:09:24.664Z,100968.95
2018-07-13T00:11:52.665Z,100977.19
2018-07-13T00:14:21.709Z,100971.25
2018-07-13T00:16:50.988Z,100978.38
2018-07-13T00:19:19.763Z,100980.44
2018-07-13T00:21:47.777Z,100979.42
2018-07-13T00:24:15.784Z,100983.38
2018-07-13T00:26:43.824Z,100977.05
2018-07-13T00:29:12.214Z,100984.55
2018-07-13T00:31:41.305Z,100988.11
2018-07-13T00:34:09.407Z,100977.31
2018-07-13T00:36:37.425Z,100979.98
2018-07-13T00:39:08.688Z,100983.50
2018-07-13T00:41:36.678Z,100983.95
2018-07-13T00:44:05.428Z,100978.04
2018-07-13T00:46:33.476Z,100974.58
2018-07-13T00:49:01.480Z,100977.81
2018-07-13T00:51:29.800Z,100976.48
2018-07-13T00:53:57.809Z,100971.02
2018-07-13T00:56:25.810Z,100973.41
2018-07-13T00:58:53.805Z,100978.09
2018-07-13T01:01:22.161Z,100979.31
2018-07-13T01:03:50.188Z,100979.82
2018-07-13T01:06:18.180Z,100983.03
2018-07-13T01:08:46.172Z,100990.02
2018-07-13T01:11:14.157Z,100984.96
2018-07-13T01:13:42.143Z,100978.22
2018-07-13T01:16:10.150Z,100980.95
2018-07-13T01:18:38.157Z,100982.13
2018-07-13T01:21:06.469Z,100977.61
2018-07-13T01:23:34.479Z,100977.97
2018-07-13T01:26:02.456Z,100972.78
2018-07-13T01:28:30.452Z,100974.67
2018-07-13T01:30:58.512Z,100964.84
2018-07-13T01:33:26.526Z,100959.10
2018-07-13T01:35:54.557Z,100963.71
2018-07-13T01:38:22.540Z,100965.36
2018-07-13T01:40:50.521Z,100969.23
2018-07-13T01:43:18.546Z,100969.52
2018-07-13T01:45:46.634Z,100971.51
2018-07-13T01:48:14.712Z,100969.74
2018-07-13T01:50:42.745Z,100969.01
2018-07-13T01:53:10.757Z,100969.63
2018-07-13T01:55:38.867Z,100968.13
2018-07-13T01:58:06.780Z,100970.13
2018-07-13T02:00:34.754Z,100970.71
2018-07-13T02:03:02.796Z,100970.88
2018-07-13T02:05:30.813Z,100969.84
2018-07-13T02:07:59.881Z,100975.98
2018-07-13T02:10:28.032Z,100969.47
2018-07-13T02:12:56.034Z,100975.72
2018-07-13T02:15:24.037Z,100969.27
2018-07-13T02:17:52.064Z,100975.36
2018-07-13T02:20:20.021Z,100975.81
2018-07-13T02:22:48.101Z,100974.25
2018-07-13T02:25:16.105Z,100982.09
2018-07-13T02:27:44.137Z,100979.55
2018-07-13T02:30:12.174Z,100977.69
2018-07-13T02:32:40.197Z,100982.71
2018-07-13T02:35:08.188Z,100979.16
2018-07-13T02:37:36.235Z,100982.75
2018-07-13T02:40:04.453Z,100983.47
2018-07-13T02:42:32.464Z,100982.36
2018-07-13T02:45:00.480Z,100985.50
2018-07-13T02:47:28.480Z,100989.39
2018-07-13T02:49:56.468Z,100990.95
2018-07-13T02:52:24.483Z,100994.94
2018-07-13T02:54:52.528Z,100989.31
2018-07-13T02:57:20.521Z,100990.26
2018-07-13T02:59:48.505Z,100994.03
2018-07-13T03:02:16.501Z,100989.58
2018-07-13T03:04:44.836Z,100996.06
2018-07-13T03:07:12.832Z,100998.05
2018-07-13T03:09:40.820Z,101001.33
2018-07-13T03:12:09.008Z,101005.83
2018-07-13T03:14:37.009Z,101008.12
2018-07-13T03:17:05.043Z,101005.88
2018-07-13T03:19:33.022Z,101008.31
2018-07-13T03:22:01.054Z,101011.89
2018-07-13T03:24:29.009Z,101016.39
2018-07-13T03:26:57.149Z,101012.92
2018-07-13T03:29:25.225Z,101018.65
2018-07-13T03:31:53.268Z,101021.62
2018-07-13T03:34:21.296Z,101015.06
2018-07-13T03:36:49.355Z,101021.66
2018-07-13T03:39:18.984Z,101015.90
2018-07-13T03:41:46.990Z,101023.19
2018-07-13T03:44:14.990Z,101021.66
2018-07-13T03:46:43.572Z,101019.64
2018-07-13T03:49:11.540Z,101026.86
2018-07-13T03:51:39.536Z,101026.09
2018-07-13T03:54:07.545Z,101027.70
2018-07-13T03:59:02.678Z,101025.67
2018-07-13T04:01:30.641Z,101028.19
2018-07-13T04:03:58.701Z,101024.14
2018-07-13T04:06:26.720Z,101028.26
2018-07-13T04:08:54.722Z,101027.92
2018-07-13T04:11:22.709Z,101029.90
2018-07-13T04:13:50.764Z,101030.89
2018-07-13T04:16:18.760Z,101027.30
2018-07-13T04:18:46.773Z,101025.30
2018-07-13T04:21:14.756Z,101022.83
2018-07-13T04:23:42.785Z,101020.77
2018-07-13T04:26:10.769Z,101024.58
2018-07-13T04:28:38.915Z,101019.80
2018-07-13T04:33:44.812Z,101023.57
2018-07-13T04:36:12.802Z,101030.16
2018-07-13T04:38:40.846Z,101031.48
2018-07-13T04:41:08.977Z,101035.23
2018-07-13T04:43:36.837Z,101033.89
2018-07-13T04:46:04.884Z,101038.76
2018-07-13T04:48:34.208Z,101036.80
2018-07-13T04:51:00.931Z,101035.67
2018-07-13T04:53:28.923Z,101037.61
2018-07-13T04:55:57.022Z,101039.05
2018-07-13T04:58:26.150Z,101043.25
2018-07-13T05:00:54.137Z,101044.02
2018-07-13T05:03:22.328Z,101046.36
2018-07-13T05:05:50.385Z,101037.21
2018-07-13T05:08:18.449Z,101046.67
2018-07-13T05:10:46.434Z,101048.52
2018-07-13T05:13:14.857Z,101051.31
2018-07-13T05:15:42.860Z,101052.52
2018-07-13T05:18:10.869Z,101056.59
2018-07-13T05:20:38.857Z,101054.30
2018-07-13T05:23:06.864Z,101047.67
2018-07-13T05:25:34.865Z,101054.36
2018-07-13T05:28:02.945Z,101055.41
2018-07-13T05:30:31.001Z,101057.59
2018-07-13T05:32:59.011Z,101065.97
2018-07-13T05:35:26.985Z,101059.48
2018-07-13T05:37:55.002Z,101064.61
2018-07-13T05:40:22.992Z,101059.81
2018-07-13T05:42:51.297Z,101059.38
2018-07-13T05:45:19.284Z,101063.66
2018-07-13T05:47:47.340Z,101067.63
2018-07-13T05:50:15.570Z,101068.89
2018-07-13T05:52:43.553Z,101069.32
2018-07-13T05:55:11.544Z,101070.19
2018-07-13T05:57:39.533Z,101064.05
2018-07-13T06:00:07.546Z,101068.23
2018-07-13T06:02:35.530Z,101072.06
2018-07-13T06:05:03.535Z,101074.95
2018-07-13T06:07:31.518Z,101079.70
2018-07-13T06:09:59.522Z,101081.86
2018-07-13T06:12:27.504Z,101086.53
2018-07-13T06:14:55.519Z,101085.09
2018-07-13T06:17:23.500Z,101091.24
2018-07-13T06:19:51.493Z,101082.91
2018-07-13T06:22:19.589Z,101081.87
2018-07-13T06:24:48.226Z,101084.12
2018-07-13T06:27:16.213Z,101083.89
2018-07-13T06:29:44.216Z,101086.30
2018-07-13T06:32:12.212Z,101086.61
2018-07-13T06:34:40.205Z,101088.97
2018-07-13T06:37:08.194Z,101088.04
2018-07-13T06:39:36.189Z,101091.98
2018-07-13T06:42:04.189Z,101088.53
2018-07-13T06:44:32.190Z,101090.66
2018-07-13T06:47:00.208Z,101088.06
2018-07-13T06:49:28.265Z,101086.91
2018-07-13T06:51:56.249Z,101097.52
2018-07-13T06:54:24.256Z,101089.24
2018-07-13T06:56:52.389Z,101089.89
2018-07-13T06:59:20.988Z,101087.08
2018-07-13T07:01:49.265Z,101090.03
2018-07-13T07:04:35.256Z,101091.44
2018-07-13T07:07:05.648Z,101093.42
2018-07-13T07:09:33.649Z,101096.99
2018-07-13T07:13:15.444Z,101097.42
2018-07-13T07:15:43.437Z,101103.03
2018-07-13T07:18:11.464Z,101106.41
2018-07-13T07:20:39.456Z,101109.77
2018-07-13T07:23:07.429Z,101112.34
2018-07-13T07:25:35.421Z,101115.30
2018-07-13T07:28:03.409Z,101115.95
2018-07-13T07:30:31.382Z,101117.86
2018-07-13T07:32:59.374Z,101115.78
2018-07-13T07:35:27.376Z,101114.43
2018-07-13T07:37:55.353Z,101121.50
2018-07-13T07:40:23.372Z,101120.91
2018-07-13T07:42:51.371Z,101122.86
2018-07-13T07:45:19.362Z,101125.86
2018-07-13T07:47:47.346Z,101123.48
2018-07-13T07:50:15.382Z,101122.92
2018-07-13T07:52:43.366Z,101114.06
2018-07-13T07:55:11.351Z,101117.19
2018-07-13T07:57:39.574Z,101119.56
2018-07-13T08:00:07.545Z,101116.77
2018-07-13T08:02:35.537Z,101122.08
2018-07-13T08:05:03.585Z,101126.69
2018-07-13T08:07:31.646Z,101121.84
2018-07-13T08:09:59.574Z,101124.02
2018-07-13T08:12:27.561Z,101124.17
2018-07-13T08:14:56.116Z,101122.87
2018-07-13T08:17:24.492Z,101122.22
2018-07-13T08:19:52.540Z,101118.91
2018-07-13T08:22:22.885Z,101123.33
2018-07-13T08:24:54.009Z,101123.63
2018-07-13T08:27:23.640Z,101129.36
2018-07-13T08:29:53.104Z,101120.91
2018-07-13T08:32:21.085Z,101122.41
2018-07-13T08:34:49.365Z,101127.91
2018-07-13T08:37:17.361Z,101133.67
2018-07-13T08:39:46.413Z,101132.98
2018-07-13T08:42:14.411Z,101133.91
2018-07-13T08:44:42.396Z,101132.27
2018-07-13T08:47:10.397Z,101125.50
2018-07-13T08:49:38.448Z,101131.91
2018-07-13T08:52:06.431Z,101124.39
2018-07-13T08:54:34.425Z,101135.20
2018-07-13T08:57:02.445Z,101135.91
2018-07-13T08:59:30.520Z,101136.00
2018-07-13T09:01:58.520Z,101137.02
2018-07-13T09:04:26.504Z,101137.02
2018-07-13T09:06:54.489Z,101140.67
2018-07-13T09:09:22.513Z,101149.41
2018-07-13T09:38:31.618Z,101154.64
2018-07-13T09:40:59.601Z,101157.59
2018-07-13T09:43:28.303Z,101155.45
2018-07-13T09:45:56.273Z,101158.75
2018-07-13T09:48:24.303Z,101158.07
2018-07-13T09:50:52.302Z,101162.96
2018-07-13T09:53:20.373Z,101164.84
2018-07-13T09:55:53.335Z,101172.80
2018-07-13T09:58:32.109Z,101170.05
2018-07-13T10:01:06.614Z,101178.88
2018-07-13T10:03:34.636Z,101177.03
2018-07-13T10:06:03.066Z,101180.13
2018-07-13T10:08:31.452Z,101173.11
2018-07-13T10:10:59.453Z,101176.19
2018-07-13T10:13:27.516Z,101176.23
2018-07-13T10:15:55.972Z,101178.34
2018-07-13T10:18:25.089Z,101174.71
2018-07-13T10:20:53.581Z,101174.84
2018-07-13T10:23:22.301Z,101187.41
2018-07-13T10:25:54.202Z,101182.98
2018-07-13T10:28:22.312Z,101182.66
2018-07-13T10:30:50.458Z,101184.60
2018-07-13T10:33:19.086Z,101187.88
2018-07-13T10:35:47.163Z,101188.69
2018-07-13T10:38:15.244Z,101185.53
2018-07-13T10:40:43.418Z,101185.50
2018-07-13T10:43:11.430Z,101184.88
2018-07-13T10:45:39.466Z,101180.83
2018-07-13T10:48:07.485Z,101180.66
2018-07-13T10:50:35.488Z,101185.50
2018-07-13T10:53:03.552Z,101186.02
2018-07-13T10:55:31.630Z,101184.38
2018-07-13T10:57:59.629Z,101182.61
2018-07-13T11:00:27.662Z,101178.67
2018-07-13T11:02:55.695Z,101187.30
2018-07-13T11:05:23.675Z,101177.23
2018-07-13T11:07:51.888Z,101180.22
2018-07-13T11:10:19.860Z,101175.95
2018-07-13T11:12:47.935Z,101174.66
2018-07-13T11:15:15.948Z,101178.63
2018-07-13T11:17:43.997Z,101174.33
2018-07-13T11:20:12.023Z,101174.88
2018-07-13T11:22:40.033Z,101172.45
2018-07-13T11:25:08.065Z,101171.99
2018-07-13T11:27:36.062Z,101174.78
2018-07-13T11:30:05.131Z,101177.03
2018-07-13T11:32:33.156Z,101174.67
2018-07-13T11:35:01.184Z,101180.53
2018-07-13T11:37:29.185Z,101178.16
2018-07-13T11:39:57.210Z,101174.84
2018-07-13T11:42:25.197Z,101170.89
2018-07-13T11:44:53.253Z,101170.95
2018-07-13T11:47:21.329Z,101180.75
2018-07-13T11:49:49.526Z,101173.69
2018-07-13T11:52:17.696Z,101174.56
2018-07-13T11:54:46.964Z,101178.09
2018-07-13T11:57:14.977Z,101171.35
2018-07-13T11:59:43.070Z,101180.09
2018-07-13T12:02:11.048Z,101171.33
2018-07-13T12:04:39.070Z,101165.03
2018-07-13T12:07:07.189Z,101170.89
2018-07-13T12:09:35.189Z,101162.10
2018-07-13T12:12:04.065Z,101168.77
2018-07-13T12:14:32.434Z,101170.11
2018-07-13T12:17:00.652Z,101172.14
2018-07-13T12:19:28.684Z,101171.40
2018-07-13T12:21:56.714Z,101173.22
2018-07-13T12:24:24.765Z,101171.70
2018-07-13T12:26:52.823Z,101182.01
2018-07-13T12:29:20.874Z,101173.17
2018-07-13T12:31:48.866Z,101176.63
2018-07-13T12:34:16.878Z,101172.87
2018-07-13T12:36:44.857Z,101168.00
2018-07-13T12:39:12.863Z,101168.08
2018-07-13T12:41:40.857Z,101170.91
2018-07-13T12:44:08.948Z,101169.10
2018-07-13T12:46:36.947Z,101161.41
2018-07-13T12:49:04.946Z,101167.56
2018-07-13T12:51:32.931Z,101160.30
2018-07-13T12:54:01.049Z,101157.34
2018-07-13T12:56:29.065Z,101157.20
2018-07-13T12:58:57.084Z,101159.95
2018-07-13T13:01:25.128Z,101160.20
2018-07-13T13:03:53.161Z,101153.59
2018-07-13T13:06:21.150Z,101163.15
2018-07-13T13:08:49.164Z,101158.64
2018-07-13T13:11:17.181Z,101153.34
2018-07-13T13:13:45.169Z,101149.07
2018-07-13T13:16:14.489Z,101142.37
2018-07-13T13:18:42.492Z,101143.50
2018-07-13T13:21:10.500Z,101148.56
2018-07-13T13:23:38.501Z,101138.20
2018-07-13T13:26:06.552Z,101140.97
2018-07-13T13:28:34.540Z,101147.97
2018-07-13T13:31:03.528Z,101142.35
2018-07-13T13:33:31.534Z,101144.88
2018-07-13T13:35:59.536Z,101144.29
2018-07-13T13:38:27.568Z,101137.73
2018-07-13T13:40:55.597Z,101132.66
2018-07-13T13:43:23.577Z,101133.20
2018-07-13T13:45:51.588Z,101131.50
2018-07-13T13:48:19.576Z,101130.34
2018-07-13T13:50:47.597Z,101123.72
2018-07-13T13:53:15.589Z,101124.39
2018-07-13T13:55:43.589Z,101126.93
2018-07-13T13:58:11.593Z,101120.28
2018-07-13T14:00:39.656Z,101122.00
2018-07-13T14:03:07.641Z,101130.31
2018-07-13T14:05:35.774Z,101125.35
2018-07-13T14:08:03.629Z,101119.98
2018-07-13T14:10:31.665Z,101128.27
2018-07-13T14:12:59.878Z,101112.56
2018-07-13T14:15:27.887Z,101119.29
2018-07-13T14:17:55.881Z,101118.19
2018-07-13T14:20:23.921Z,101113.27
2018-07-13T14:22:51.859Z,101114.19
2018-07-13T14:25:19.856Z,101109.83
2018-07-13T14:27:47.920Z,101112.95
2018-07-13T14:30:15.933Z,101108.73
2018-07-13T14:32:43.917Z,101104.53
2018-07-13T14:35:11.909Z,101106.50
2018-07-13T14:37:39.909Z,101111.12
2018-07-13T14:40:07.965Z,101117.55
2018-07-13T14:42:35.945Z,101117.14
2018-07-13T14:45:03.941Z,101105.83
2018-07-13T14:47:31.984Z,101104.25
2018-07-13T14:49:59.980Z,101100.30
2018-07-13T14:52:27.970Z,101105.31
2018-07-13T14:54:55.992Z,101103.44
2018-07-13T14:57:23.986Z,101099.30
2018-07-13T14:59:51.966Z,101101.59
2018-07-13T15:02:20.048Z,101097.48
2018-07-13T15:04:48.047Z,101098.63
2018-07-13T15:07:16.036Z,101105.63
2018-07-13T15:09:44.092Z,101102.78
2018-07-13T15:12:12.036Z,101106.33
2018-07-13T15:16:09.261Z,101105.76
2018-07-13T15:18:37.331Z,101097.39
2018-07-13T15:21:05.317Z,101096.59
2018-07-13T15:23:33.513Z,101094.67
2018-07-13T15:26:01.518Z,101096.59
2018-07-13T15:28:29.541Z,101098.05
2018-07-13T15:30:57.589Z,101099.80
2018-07-13T15:33:25.580Z,101093.64
2018-07-13T15:35:53.661Z,101095.96
2018-07-13T15:38:21.696Z,101100.15
2018-07-13T15:40:49.673Z,101105.41
2018-07-13T15:43:17.679Z,101100.82
2018-07-13T15:45:45.680Z,101096.65
2018-07-13T15:48:13.677Z,101101.73
2018-07-13T15:50:41.682Z,101105.10
2018-07-13T15:53:09.664Z,101102.00
2018-07-13T15:55:43.001Z,101102.13
2018-07-13T15:58:11.004Z,101104.31
2018-07-13T16:00:39.085Z,101101.81
2018-07-13T16:03:07.276Z,101097.66
2018-07-13T16:05:35.338Z,101091.30
2018-07-13T16:08:03.377Z,101099.83
2018-07-13T16:10:32.606Z,101094.97
2018-07-13T16:13:00.774Z,101094.23
2018-07-13T16:15:28.845Z,101101.86
2018-07-13T16:17:57.009Z,101100.15
2018-07-13T16:20:25.001Z,101103.16
2018-07-13T16:22:53.067Z,101101.13
2018-07-13T16:25:21.041Z,101099.31
2018-07-13T16:27:49.069Z,101095.65
2018-07-13T16:30:17.061Z,101103.44
2018-07-13T16:35:18.533Z,101106.06
2018-07-13T16:37:46.531Z,101094.53
2018-07-13T16:40:14.553Z,101100.27
2018-07-13T16:42:42.640Z,101095.78
2018-07-13T16:45:10.715Z,101093.12
2018-07-13T16:47:38.636Z,101088.06
2018-07-13T16:50:06.644Z,101087.71
2018-07-13T16:52:35.736Z,101091.59
2018-07-13T16:55:03.730Z,101092.44
2018-07-13T16:57:31.764Z,101087.42
2018-07-13T16:59:59.765Z,101092.73
2018-07-13T17:02:27.798Z,101093.17
2018-07-13T17:04:55.779Z,101093.22
2018-07-13T17:07:23.901Z,101086.50
2018-07-13T17:09:52.056Z,101096.90
2018-07-13T17:12:20.057Z,101096.41
2018-07-13T17:14:48.067Z,101103.81
2018-07-13T17:17:16.090Z,101097.83
2018-07-13T17:19:44.085Z,101095.84
2018-07-13T17:22:12.121Z,101103.52
2018-07-13T17:24:40.513Z,101104.19
2018-07-13T17:27:08.545Z,101103.48
2018-07-13T17:29:36.602Z,101107.21
2018-07-13T17:32:04.737Z,101106.89
2018-07-13T17:34:32.828Z,101109.16
2018-07-13T17:37:00.844Z,101103.33
2018-07-13T17:39:28.993Z,101098.66
2018-07-13T17:41:57.280Z,101102.08
2018-07-13T17:44:25.308Z,101096.28
2018-07-13T17:46:53.388Z,101094.94
2018-07-13T17:49:21.431Z,101081.63
2018-07-13T17:51:49.436Z,101090.06
2018-07-13T17:54:17.534Z,101081.61
2018-07-13T17:56:45.562Z,101089.56
2018-07-13T17:59:13.628Z,101095.09
2018-07-13T18:01:41.809Z,101097.13
2018-07-13T18:04:09.852Z,101106.20
2018-07-13T18:06:37.907Z,101100.33
2018-07-13T18:09:06.868Z,101100.84
2018-07-13T18:11:34.957Z,101101.67
2018-07-13T18:14:02.997Z,101100.23
2018-07-13T18:16:31.032Z,101098.84
2018-07-13T18:18:59.053Z,101097.94
2018-07-13T18:21:27.152Z,101105.91
2018-07-13T18:23:55.125Z,101101.03
2018-07-13T18:26:23.261Z,101101.29
2018-07-13T18:28:51.397Z,101102.97
2018-07-13T18:31:19.432Z,101102.61
2018-07-13T18:33:47.450Z,101104.41
2018-07-13T18:36:15.431Z,101107.13
2018-07-13T18:38:44.181Z,101102.75
2018-07-13T18:41:12.880Z,101109.05
2018-07-13T18:43:40.920Z,101107.19
2018-07-13T18:46:08.923Z,101106.40
2018-07-13T18:48:36.913Z,101112.75
2018-07-13T18:51:04.913Z,101112.81
2018-07-13T18:53:32.911Z,101112.94
2018-07-13T18:56:00.962Z,101116.64
2018-07-13T18:58:28.972Z,101122.44
2018-07-13T19:00:57.037Z,101119.69
2018-07-13T19:03:25.029Z,101121.92
2018-07-13T19:05:53.018Z,101125.33
2018-07-13T19:08:21.030Z,101124.66
2018-07-13T19:10:49.061Z,101126.70
2018-07-13T19:13:17.081Z,101126.97
2018-07-13T19:15:45.028Z,101129.72
2018-07-13T19:18:13.686Z,101132.88
2018-07-13T19:20:41.680Z,101141.11
2018-07-13T19:23:09.805Z,101132.92
2018-07-13T19:25:37.850Z,101135.81
2018-07-13T19:28:05.869Z,101137.70
2018-07-13T19:30:33.913Z,101136.93
2018-07-13T19:33:01.933Z,101128.55
2018-07-13T19:35:30.037Z,101136.01
2018-07-13T19:37:58.029Z,101139.48
2018-07-13T19:40:26.126Z,101142.59
2018-07-13T19:42:54.112Z,101141.38
2018-07-13T19:45:22.101Z,101149.89
2018-07-13T19:47:51.241Z,101152.70
2018-07-13T19:50:19.304Z,101152.09
2018-07-13T19:52:47.290Z,101160.44
2018-07-13T19:55:15.414Z,101163.74
2018-07-13T19:57:43.798Z,101165.17
2018-07-13T20:00:11.944Z,101166.89
2018-07-13T20:02:39.900Z,101172.15
2018-07-13T20:05:07.974Z,101181.39
2018-07-13T20:07:36.103Z,101184.36
2018-07-13T20:10:04.254Z,101177.38
2018-07-13T20:12:32.272Z,101182.06
2018-07-13T20:15:00.301Z,101181.57
2018-07-13T20:17:28.583Z,101175.92
2018-07-13T20:19:56.577Z,101180.34
2018-07-13T20:22:24.584Z,101184.87
2018-07-13T20:24:52.588Z,101184.85
2018-07-13T20:27:20.593Z,101182.02
2018-07-13T20:29:48.609Z,101179.80
2018-07-13T20:32:16.604Z,101192.11
2018-07-13T20:34:44.625Z,101190.32
2018-07-13T20:37:12.609Z,101194.66
2018-07-13T20:39:40.601Z,101189.83
2018-07-13T20:42:08.636Z,101198.02
2018-07-13T20:44:36.636Z,101191.31
2018-07-13T20:47:05.008Z,101194.27
2018-07-13T20:49:33.085Z,101195.23
2018-07-13T20:52:01.073Z,101193.28
2018-07-13T20:54:29.073Z,101196.75
2018-07-13T20:56:57.068Z,101199.52
2018-07-13T20:59:25.089Z,101198.33
2018-07-13T21:01:53.095Z,101200.59
2018-07-13T21:04:21.086Z,101203.44
2018-07-13T21:06:49.081Z,101206.23
2018-07-13T21:09:17.330Z,101198.39
2018-07-13T21:11:45.404Z,101200.35
2018-07-13T21:14:13.535Z,101204.69
2018-07-13T21:16:41.581Z,101207.38
2018-07-13T21:19:09.658Z,101207.98
2018-07-13T21:21:37.661Z,101208.45
2018-07-13T21:24:05.948Z,101211.23
2018-07-13T21:26:33.992Z,101209.55
2018-07-13T21:29:01.972Z,101202.87
2018-07-13T21:31:30.041Z,101210.41
2018-07-13T21:33:58.050Z,101207.63
2018-07-13T21:36:26.053Z,101215.66
2018-07-13T21:38:54.029Z,101210.91
2018-07-13T21:41:22.028Z,101211.89
2018-07-13T21:43:50.015Z,101207.88
2018-07-13T21:46:18.001Z,101209.23
2018-07-13T21:48:46.029Z,101212.64
2018-07-13T21:51:14.517Z,101208.62
2018-07-13T21:53:42.561Z,101207.41
2018-07-13T21:56:10.556Z,101205.47
2018-07-13T21:58:38.621Z,101210.81
2018-07-13T22:01:07.179Z,101212.75
2018-07-13T22:03:35.776Z,101211.79
2018-07-13T22:06:04.448Z,101211.31
2018-07-13T22:08:33.079Z,101207.75
2018-07-13T22:11:01.692Z,101214.78
2018-07-13T22:13:31.374Z,101213.20
2018-07-13T22:16:00.912Z,101207.03
2018-07-13T22:18:29.668Z,101195.48
2018-07-13T22:20:57.937Z,101210.30
2018-07-13T22:23:26.638Z,101205.81
2018-07-13T22:25:54.785Z,101202.89
2018-07-13T22:30:55.440Z,101198.05
2018-07-13T22:33:24.044Z,101199.63
2018-07-13T22:35:52.281Z,101198.90
2018-07-13T22:38:20.306Z,101202.41
2018-07-13T22:40:48.355Z,101208.44
2018-07-13T22:43:16.588Z,101211.11
2018-07-13T22:45:44.681Z,101210.86
2018-07-13T22:48:12.704Z,101211.84
2018-07-13T22:50:40.740Z,101215.12
2018-07-13T22:53:08.745Z,101217.39
2018-07-13T22:57:02.545Z,101220.78
2018-07-13T22:59:30.528Z,101219.86
2018-07-13T23:01:58.561Z,101214.40
2018-07-13T23:04:28.576Z,101218.88
2018-07-13T23:06:56.649Z,101211.22
2018-07-13T23:09:24.669Z,101206.27
2018-07-13T23:11:52.729Z,101208.54
2018-07-13T23:14:20.710Z,101213.28
2018-07-13T23:16:48.780Z,101209.55
2018-07-13T23:19:16.776Z,101207.95
2018-07-13T23:21:44.886Z,101199.78
2018-07-13T23:24:12.855Z,101201.39
2018-07-13T23:26:40.853Z,101201.78
2018-07-13T23:29:10.086Z,101209.42
2018-07-13T23:31:38.084Z,101198.28
2018-07-13T23:34:06.094Z,101202.09
2018-07-13T23:36:34.109Z,101196.35
2018-07-13T23:39:02.116Z,101198.66
2018-07-13T23:41:30.145Z,101200.75
2018-07-13T23:43:58.176Z,101200.20
2018-07-13T23:46:26.172Z,101193.30
2018-07-13T23:48:54.183Z,101195.24
2018-07-13T23:51:22.201Z,101195.87
2018-07-13T23:53:50.360Z,101194.55
2018-07-13T23:56:18.398Z,101192.99
2018-07-13T23:58:46.623Z,101194.46
